ePrivacy and GPDR Cookie Consent by Cookie Consent
EmailTwitter


Observations de surface / Québec / CYUL (71627)

Régions: Québec | Canada | États-Unis | Europe | France | UK | Ailleurs
Station
Affichage
Infos & localisation pour CYUL (71627) | Aide pour décoder les METARs

Observations prises le 2022-12-05 à 15H00 UTC à MONTREAL INTL A, QB (CYUL)

Etat du ciel: quelques nuages.

Température: 3.0 Celsius

Point de rosée: -6.0 Celsius

Humidité relative: 52%

Facteur vent -2.

Facteur vent (rafales) -3.

Vents: Sud à 28 km/h ou 15 noeuds.

Rafale du vent: 39 km/h ou 21 noeuds.

Pression au niveau moyen de la mer: 101.76 kilopascals.

Calage altimétrique: 101.73 kilopascals ou 30.04 pouces de mercure.

Visibilité horizontale: 30.00 milles terrestres ou 48.00 kilomètres.

Observation METAR:

CYUL 051500Z 19015G21KT 30SM FEW040 FEW250 03/M06 A3004 RMK SC1CI2 SC TR SLP176=